»·PEaware :: UAL1122 KEGE-KAPA

UAL1122 :: KEGE-KAPA

FLIGHT INFORMATION

Flight Status: Arrived
Operator:
United Airlines
More flights by this operator :: More flights under this callsign
Pilot: Ben L. (6391)
Aircraft: BOEING 737-800
(B738)
More flights by this aircraft type
Origin: KEGE Eagle Co Regl
United States
Destination: KAPA Centennial
United States
More flights between these airports :: More routes between these airports
Route: BEVVR1 BELGN TOMSN TOMSN7
File this flight plan on PilotEdge
Remarks:
Altitude:
(Current/Filed)
21,000ft
Speed:
(Current/Filed)
450kts
Departed: 23-Oct-19 06:05 PM
Arrived: 23-Oct-19 06:42 PM
Distance/Time
Traveled:
96nm/0:36
Distance/Time
To Go:
Arrived

Flight Plot

Page will automatically refresh every two minutes.

Flight plan parsing failed; only flown route is shown


Map Options




Map Legend


Flown Route
Filed Route
Departure Airport
Arrival Airport
Navaid (VOR, NDB)
Fix

Horizontal Profiles

Position Reports

Time Latitude Longitude Heading Altitude Ground
Speed
23-Oct-19 17:46 39.640938 -106.911392 171 6553ft 0kts
23-Oct-19 17:47 39.640938 -106.911392 171 6553ft 0kts
23-Oct-19 17:49 39.640938 -106.911392 171 6553ft 0kts
23-Oct-19 17:50 39.640938 -106.911392 171 6553ft 0kts
23-Oct-19 17:51 39.640938 -106.911392 171 6553ft 0kts
23-Oct-19 17:52 39.640938 -106.911392 171 6553ft 0kts
23-Oct-19 17:53 39.640938 -106.911392 171 6553ft 0kts
23-Oct-19 17:54 39.640938 -106.911392 171 6553ft 0kts
23-Oct-19 17:55 39.640938 -106.911392 171 6553ft 0kts
23-Oct-19 17:56 39.640938 -106.911392 171 6553ft 0kts
23-Oct-19 17:57 39.641140 -106.911481 146 6553ft 2kts
23-Oct-19 17:58 39.641376 -106.912149 79 6553ft 2kts
23-Oct-19 17:59 39.641350 -106.912322 82 6553ft 0kts
23-Oct-19 18:00 39.641639 -106.909700 75 6553ft 10kts
23-Oct-19 18:01 39.642491 -106.908109 81 6553ft 16kts
23-Oct-19 18:02 39.643373 -106.900383 59 6553ft 0kts
23-Oct-19 18:03 39.643376 -106.900379 58 6553ft 0kts
23-Oct-19 18:03 39.644401 -106.900857 239 6553ft 5kts
23-Oct-19 18:05 39.631126 -106.953947 222 8292ft 193kts
23-Oct-19 18:06 39.584558 -106.992737 223 10207ft 254kts
23-Oct-19 18:07 39.593174 -107.080312 321 14355ft 268kts
23-Oct-19 18:07 39.647853 -107.105971 3 17555ft 266kts
23-Oct-19 18:08 39.722340 -107.083452 24 20151ft 311kts
23-Oct-19 18:10 39.807676 -106.982637 42 21282ft 390kts
23-Oct-19 18:10 39.870153 -106.897715 41 21288ft 397kts
23-Oct-19 18:11 39.951197 -106.787478 42 21286ft 442kts
23-Oct-19 18:12 40.032975 -106.669951 51 21290ft 446kts
23-Oct-19 18:13 40.079759 -106.519889 72 21290ft 455kts
23-Oct-19 18:14 40.106313 -106.370408 73 21294ft 456kts
23-Oct-19 18:15 40.135762 -106.215822 67 21284ft 454kts
23-Oct-19 18:16 40.179211 -106.064495 66 21265ft 453kts
23-Oct-19 18:17 40.221878 -105.915177 66 21261ft 411kts
23-Oct-19 18:18 40.261463 -105.776194 66 21266ft 409kts
23-Oct-19 18:19 40.301213 -105.635710 66 19743ft 416kts
23-Oct-19 18:20 40.319191 -105.490912 92 17176ft 389kts
23-Oct-19 18:21 40.288978 -105.367414 121 16010ft 340kts
23-Oct-19 18:22 40.230601 -105.280632 136 14685ft 331kts
23-Oct-19 18:23 40.154940 -105.217657 158 13692ft 321kts
23-Oct-19 18:24 40.073302 -105.173146 158 12690ft 314kts
23-Oct-19 18:25 39.993180 -105.130738 158 11696ft 307kts
23-Oct-19 18:26 39.916409 -105.092847 158 11028ft 290kts
23-Oct-19 18:27 39.849247 -105.058226 158 11003ft 279kts
23-Oct-19 18:28 39.773842 -105.045801 178 10996ft 279kts
23-Oct-19 18:29 39.696328 -105.041162 178 10449ft 280kts
23-Oct-19 18:30 39.619042 -105.036913 177 9721ft 269kts
23-Oct-19 18:31 39.551566 -105.033620 178 9029ft 237kts
23-Oct-19 18:32 39.485438 -105.030530 173 8994ft 238kts
23-Oct-19 18:33 39.426631 -104.992368 147 8996ft 233kts
23-Oct-19 18:34 39.374017 -104.953722 147 8998ft 215kts
23-Oct-19 18:35 39.352064 -104.895718 54 8998ft 190kts
23-Oct-19 18:36 39.394946 -104.859227 27 8740ft 185kts
23-Oct-19 18:37 39.442251 -104.843761 355 8155ft 174kts
23-Oct-19 18:38 39.485203 -104.846955 359 7318ft 141kts
23-Oct-19 18:39 39.524228 -104.848726 359 6572ft 140kts
23-Oct-19 18:40 39.561570 -104.850462 0 5892ft 109kts
23-Oct-19 18:41 39.573510 -104.849843 25 5892ft 25kts
23-Oct-19 18:42 39.577540 -104.849033 59 5892ft 5kts
23-Oct-19 18:43 39.578314 -104.848442 0 5892ft 0kts

Navigation Log

Ident Type
Flight plan parsing failed, navigation log unavailable